Meratus Medan 1 — PNEM — position and weather

sailwx.info

Track history (hours):
 
Tides and Currents Weather Stations Pressure Air Temp Water Temp Dewpoint Dewpoint Depression Visibility Wind Speed Wind Dir Waves Ship Positions

Meratus Medan 1

Last reported at 2018-Aug-08 06:22 UTC. Time now 2018-Aug-14 13:47 UTC.
Position S 06°38' E 113°11'.

Length 162 m; draft 7 m.

Type: Other ship. MMSI: 525025054.

Date/timePositionNaut miles runAvg speedWind from/ knotsBaromVisibWave heightAir tempDewpointWater temp
2018-Aug-08 06:22S 06°38' E 113°11'512.6
2018-Aug-08 05:56S 06°41' E 113°06'1412.7
2018-Aug-08 04:50S 06°48' E 112°54'512.9
2018-Aug-08 04:28S 06°50' E 112°50'612.1
2018-Aug-08 03:58S 06°53' E 112°44'5 9.9
2018-Aug-08 03:30S 06°57' E 112°43'813.7
2018-Aug-08 02:55S 07°05' E 112°39'612.1
2018-Aug-08 02:27S 07°10' E 112°41'3 3.3
2018-Aug-08 01:25S 07°12' E 112°43'0 0.0
2018-Aug-07 23:27S 07°12' E 112°43'0 0.0
2018-Aug-07 21:54S 07°12' E 112°43'0 0.0
2018-Aug-07 21:12S 07°12' E 112°43'0 0.0
2018-Aug-07 18:15S 07°12' E 112°43'0 0.0
2018-Aug-07 17:51S 07°12' E 112°43'0 0.0
2018-Aug-07 16:51S 07°12' E 112°43'0 0.0
2018-Aug-07 16:27S 07°12' E 112°43'0 0.0
2018-Aug-07 13:03S 07°12' E 112°43'0 0.0
2018-Aug-07 12:51S 07°12' E 112°43'0 0.0
2018-Aug-06 20:57S 07°12' E 112°43'0 0.5
2018-Aug-06 20:03S 07°12' E 112°43'0 3.8
2018-Aug-06 19:58S 07°12' E 112°43'4 7.3
2018-Aug-06 19:28S 07°09' E 112°40'813.0
2018-Aug-06 18:53S 07°02' E 112°40'512.4
2018-Aug-06 18:29S 06°57' E 112°43'4 7.4
2018-Aug-06 17:57S 06°54' E 112°44'4 6.8
2018-Aug-06 17:23S 06°50' E 112°46'0 0.1
2018-Aug-06 11:42S 06°51' E 112°46'0 0.0
2018-Aug-06 09:51S 06°51' E 112°46'0 0.0
2018-Aug-06 09:27S 06°51' E 112°46'0 0.0
2018-Aug-06 02:12S 06°50' E 112°46'0 0.0
2018-Aug-06 00:00S 06°50' E 112°46'0 0.0
2018-Aug-05 18:36S 06°50' E 112°46'  
Track history (hours):
 
Tides and Currents Weather Stations Pressure Air Temp Water Temp Dewpoint Dewpoint Depression Visibility Wind Speed Wind Dir Waves Ship Positions

Meratus Medan 1

Last reported at 2018-Aug-08 06:22 UTC. Time now 2018-Aug-14 13:47 UTC.
Position S 06°38' E 113°11'.

Length 162 m; draft 7 m.

Type: Other ship. MMSI: 525025054.

Date/timePositionNaut miles runAvg speedWind from/ knotsBaromVisibWave heightAir tempDewpointWater temp
2018-Aug-08 06:22S 06°38' E 113°11'512.6
2018-Aug-08 05:56S 06°41' E 113°06'1412.7
2018-Aug-08 04:50S 06°48' E 112°54'512.9
2018-Aug-08 04:28S 06°50' E 112°50'612.1
2018-Aug-08 03:58S 06°53' E 112°44'5 9.9
2018-Aug-08 03:30S 06°57' E 112°43'813.7
2018-Aug-08 02:55S 07°05' E 112°39'612.1
2018-Aug-08 02:27S 07°10' E 112°41'3 3.3
2018-Aug-08 01:25S 07°12' E 112°43'0 0.0
2018-Aug-07 23:27S 07°12' E 112°43'0 0.0
2018-Aug-07 21:54S 07°12' E 112°43'0 0.0
2018-Aug-07 21:12S 07°12' E 112°43'0 0.0
2018-Aug-07 18:15S 07°12' E 112°43'0 0.0
2018-Aug-07 17:51S 07°12' E 112°43'0 0.0
2018-Aug-07 16:51S 07°12' E 112°43'0 0.0
2018-Aug-07 16:27S 07°12' E 112°43'0 0.0
2018-Aug-07 13:03S 07°12' E 112°43'0 0.0
2018-Aug-07 12:51S 07°12' E 112°43'0 0.0
2018-Aug-06 20:57S 07°12' E 112°43'0 0.5
2018-Aug-06 20:03S 07°12' E 112°43'0 3.8
2018-Aug-06 19:58S 07°12' E 112°43'4 7.3
2018-Aug-06 19:28S 07°09' E 112°40'813.0
2018-Aug-06 18:53S 07°02' E 112°40'512.4
2018-Aug-06 18:29S 06°57' E 112°43'4 7.4
2018-Aug-06 17:57S 06°54' E 112°44'4 6.8
2018-Aug-06 17:23S 06°50' E 112°46'0 0.1
2018-Aug-06 11:42S 06°51' E 112°46'0 0.0
2018-Aug-06 09:51S 06°51' E 112°46'0 0.0
2018-Aug-06 09:27S 06°51' E 112°46'0 0.0
2018-Aug-06 02:12S 06°50' E 112°46'0 0.0
2018-Aug-06 00:00S 06°50' E 112°46'0 0.0
2018-Aug-05 18:36S 06°50' E 112°46'  

Dump ship's entire track history